Armavir, Russia

10:03 AM MSK on February 13, 2016 (GMT +0300)
Shpakovskoye | | Change Station
CLOSE
Current Station
Airport
Location: Stavropol',
Elevation: 1483 ft
Nearby Weather Stations

Elev 1483 ft 45.12 °N, 42.08 °E | Updated 33 minutes ago

Partly Cloudy
Partly Cloudy
43 °F
Feels Like 39 °F
N
7
Wind Variable Wind from SSE

Today
High -- | Low -- °F
--% Chance of Precip.
Yesterday
High -- | Low -- °F
Precip. -- in
Pressure 30.06 in
Visibility 6.2 miles
Clouds Few 4000 ft
Windchill 39 °F
Dew Point 32 °F
Humidity 66%
Rainfall 0.00 in
Snow Depth Not available.
7:20 AM 5:39 PM
Waxing Crescent, 28% visible
METAR URMT 130630Z 16003MPS 9999 FEW040 06/M00 Q1018 R07/110060 NOSIG RMK QFE723
Pressure 30.06 in
Visibility 6.2 miles
Clouds Few 4000 ft
Windchill 39 °F
Dew Point 32 °F
Humidity 66%
Rainfall 0.00 in
Snow Depth Not available.
7:20 AM 5:39 PM
Waxing Crescent, 28% visible
METAR URMT 130630Z 16003MPS 9999 FEW040 06/M00 Q1018 R07/110060 NOSIG RMK QFE723

10-Day Weather Forecast

Almanac

Astronomy

Feb. 13, 2016 Rise Set
Actual Time
Civil Twilight
Nautical Twilight
Astronomical Twilight
Moon
Length of Visible Light
Length of Day
Tomorrow will be .
, % of the Moon is Illuminated

Today's Extremes

Country Highs Country Lows

Community

WunderPhotos

Upload Photos

1,892,519 photos uploaded!

WunderBlog® & News

Nearby

Air Quality

  Air Quality AQ Index Pollutant
Not available.

Snow Depth

Station Depth Elevation

Earthquake Activity

City Distance Mag. Time & Date
Minimum magnitude displayed is 2.5.

Coastal Water Temperatures

Place Temperature

Stations

Nearby Weather Stations

Station Location Temp. Windchill Dew Point Humidity Wind Precip. Elev Updated Type